EDDB/SXF METAR and TAF weather

Enter ICAO airport designator
Station Type Date Time Source
EDDB METAR 2022/07/03 14:20 UTC NOAA

EDDB 031420Z 26003KT CAVOK 30/08 Q1016 NOSIG


Station Type Date Time Source
EDDB Decoded METAR 2022/07/03 14:20 UTC NOAA

Berlin-Schoenefeld, Germany (EDDB) 52-23N 013-31E 50M
Jul 03, 2022 - 10:20 AM EDT / 2022.07.03 1420 UTC
Wind: from the W (260 degrees) at 3 MPH (3 KT):0
Visibility: greater than 7 mile(s):0
Temperature: 86 F (30 C)
Dew Point: 46 F (8 C)
Relative Humidity: 25%
Pressure (altimeter): 30.00 in. Hg (1016 hPa)
ob: EDDB 031420Z 26003KT CAVOK 30/08 Q1016 NOSIG
cycle: 14

Station Type Date Time Source
EDDB TAF 2022/07/03 12:27 UTC NOAA

TAF TAF EDDB 031100Z 0312/0412 16007KT CAVOK
BECMG 0322/0401 28005KT
BECMG 0404/0406 30010KT

Example: see airport list